Airfield :
LOGIN :

Register | Disclaimer

   EN    FR    IT 

 










Legend :    VFR   Marginal VFR   IFR   Intensive IFR   Very Intensive IFR
Visi :
Ceiling :
>= 8 km
>= 3000ft
5 to 8 km
1000 to 3000 ft
1500m to 5 km
500 to 1000 ft
800 to 1500m
200 to 500 ft
< 800m
< 200 ft
Symbols :   Thunderstorms  Fog  Heavy snow  Heavy precipitations  Wind > 20 kt
SIGMETs :     Misc.  Thunderstorms  Icing  Turbulence  Mountain Waves  Volcanic Ashes







- Airport Elevation : 90 ft
- IATA code : NTE
- Download approach charts


LFRS - Nantes

CURRENT METAR :
  • 191630Z AUTO 06017KT CAVOK 22/03 Q1022 TEMPO 06018G30KT

EXPIRED METARs :
  • 191600Z AUTO 06017KT CAVOK 22/03 Q1022 TEMPO 06018G30KT
  • 191530Z AUTO 05015KT 030V090 CAVOK 23/04 Q1022 TEMPO 06018G30KT
  • 191500Z AUTO 06018KT 020V090 CAVOK 22/03 Q1022 TEMPO 06018G30KT
  • 191430Z AUTO 05017KT CAVOK 23/03 Q1022 TEMPO 06018G30KT
  • 191400Z AUTO 06017KT 360V070 CAVOK 22/04 Q1022 TEMPO 06018G30KT

TAF TAF LFRS
Valid from the 19 at 12:00 until the 20 at 18:00 UTC


191100Z 1912/2018 06013KT CAVOK
TEMPO 1912/1918 06018G30KT
ATIS : +33 2 40 05 12 74
No reported NOTAMs for that airfield.



MET'MAP, your aeronautical weather chart ! - Copyright ORBIFLY December 2007 - Disclaimer

ORBIFLY MET'MAP TEAM :

Programming & Development : Alexandra Zaïnal
Concept & Development : Baudouin d'Aumeries
Co-Development & Prog : Marc-Olivier Méhu
Technical & hardware support : Manuel Goepfert

Contact : metmap@orbifly.com




SOURCES & CREDITS :

   NOAA